Time,TemperatureF,DewpointF,PressureIn,WindDirection,WindDirectionDegrees,WindSpeedMPH,WindSpeedGustMPH,Humidity,HourlyPrecipIn,Conditions,Clouds,dailyrainin,SoftwareType,DateUTC
2013-06-18 00:05:00,81.7,77.0,30.12,SE,135,4.0,7.0,84,0.00,,,0.00,weatherlink.com 1.10,2013-06-18 04:05:00,
2013-06-18 00:20:00,81.7,77.0,30.11,SSE,162,3.0,9.0,85,0.00,,,0.00,weatherlink.com 1.10,2013-06-18 04:20:00,
2013-06-18 00:35:00,81.7,77.0,30.12,ESE,118,2.0,7.0,85,0.00,,,0.00,weatherlink.com 1.10,2013-06-18 04:35:00,
2013-06-18 00:50:00,81.6,77.0,30.12,SE,135,2.0,5.0,85,0.00,,,0.00,weatherlink.com 1.10,2013-06-18 04:50:00,
2013-06-18 01:05:00,81.6,76.0,30.11,SSE,148,3.0,7.0,84,0.00,,,0.00,weatherlink.com 1.10,2013-06-18 05:05:00,
2013-06-18 01:20:00,81.5,76.0,30.11,SE,143,3.0,6.0,84,0.00,,,0.00,weatherlink.com 1.10,2013-06-18 05:20:00,
2013-06-18 01:35:00,81.4,76.0,30.11,SSE,149,1.0,5.0,84,0.00,,,0.00,weatherlink.com 1.10,2013-06-18 05:35:00,
2013-06-18 01:50:00,81.3,76.0,30.10,SW,215,3.0,6.0,84,0.00,,,0.00,weatherlink.com 1.10,2013-06-18 05:50:00,
2013-06-18 02:05:00,81.2,76.0,30.09,SE,141,1.0,4.0,84,0.00,,,0.00,weatherlink.com 1.10,2013-06-18 06:05:00,
2013-06-18 02:20:00,81.0,76.0,30.09,SE,134,0.0,4.0,85,0.00,,,0.00,weatherlink.com 1.10,2013-06-18 06:20:00,
2013-06-18 02:35:00,80.9,76.0,30.10,SSE,166,0.0,3.0,85,0.00,,,0.00,weatherlink.com 1.10,2013-06-18 06:35:00,
2013-06-18 02:50:00,80.9,76.0,30.10,SE,129,1.0,3.0,85,0.00,,,0.00,weatherlink.com 1.10,2013-06-18 06:50:00,
2013-06-18 03:06:00,80.7,76.0,30.09,SSE,152,0.0,3.0,85,0.00,,,0.00,weatherlink.com 1.10,2013-06-18 07:06:00,
2013-06-18 03:21:00,80.5,76.0,30.09,SE,125,0.0,0.0,86,0.00,,,0.00,weatherlink.com 1.10,2013-06-18 07:21:00,
2013-06-18 03:36:00,80.5,76.0,30.09,ESE,115,1.0,2.0,86,0.00,,,0.00,weatherlink.com 1.10,2013-06-18 07:36:00,
2013-06-18 03:51:00,80.5,76.0,30.09,SE,132,0.0,3.0,86,0.00,,,0.00,weatherlink.com 1.10,2013-06-18 07:51:00,
2013-06-18 04:06:00,80.5,76.0,30.08,SSE,148,0.0,1.0,87,0.00,,,0.00,weatherlink.com 1.10,2013-06-18 08:06:00,
2013-06-18 04:21:00,80.2,76.0,30.08,SW,231,0.0,0.0,87,0.00,,,0.00,weatherlink.com 1.10,2013-06-18 08:21:00,
2013-06-18 04:36:00,79.9,76.0,30.08,SSE,159,0.0,2.0,88,0.00,,,0.00,weatherlink.com 1.10,2013-06-18 08:36:00,
2013-06-18 04:51:00,79.9,76.0,30.08,SE,136,0.0,0.0,87,0.00,,,0.00,weatherlink.com 1.10,2013-06-18 08:51:00,
2013-06-18 05:06:00,80.0,76.0,30.08,SW,232,0.0,0.0,87,0.00,,,0.00,weatherlink.com 1.10,2013-06-18 09:06:00,
2013-06-18 05:21:00,79.4,76.0,30.07,SW,232,0.0,0.0,88,0.00,,,0.00,weatherlink.com 1.10,2013-06-18 09:21:00,
2013-06-18 05:36:00,78.6,75.0,30.07,SW,232,0.0,0.0,89,0.00,,,0.00,weatherlink.com 1.10,2013-06-18 09:36:00,
2013-06-18 05:51:00,78.1,75.0,30.08,SW,228,0.0,0.0,89,0.00,,,0.00,weatherlink.com 1.10,2013-06-18 09:51:00,
2013-06-18 06:06:00,77.9,75.0,30.08,SW,228,0.0,0.0,90,0.00,,,0.00,weatherlink.com 1.10,2013-06-18 10:06:00,
2013-06-18 06:21:00,78.6,76.0,30.07,SE,134,0.0,0.0,90,0.00,,,0.00,weatherlink.com 1.10,2013-06-18 10:21:00,
2013-06-18 06:36:00,78.8,75.0,30.08,SE,127,0.0,0.0,89,0.00,,,0.00,weatherlink.com 1.10,2013-06-18 10:36:00,
2013-06-18 06:51:00,78.9,76.0,30.08,SE,127,0.0,0.0,90,0.00,,,0.00,weatherlink.com 1.10,2013-06-18 10:51:00,
2013-06-18 07:06:00,80.7,77.0,30.08,SSW,203,1.0,6.0,88,0.00,,,0.00,weatherlink.com 1.10,2013-06-18 11:06:00,
2013-06-18 07:21:00,81.7,77.0,30.09,ESE,121,4.0,7.0,84,0.00,,,0.00,weatherlink.com 1.10,2013-06-18 11:21:00,
2013-06-18 07:36:00,81.6,76.0,30.09,SE,146,2.0,7.0,84,0.00,,,0.00,weatherlink.com 1.10,2013-06-18 11:36:00,
2013-06-18 07:51:00,83.1,78.0,30.10,SE,125,3.0,5.0,83,0.00,,,0.00,weatherlink.com 1.10,2013-06-18 11:51:00,
2013-06-18 08:06:00,83.5,77.0,30.11,SE,141,3.0,6.0,80,0.00,,,0.00,weatherlink.com 1.10,2013-06-18 12:06:00,
2013-06-18 08:21:00,83.6,77.0,30.11,SE,127,2.0,6.0,80,0.00,,,0.00,weatherlink.com 1.10,2013-06-18 12:21:00,
2013-06-18 08:36:00,84.8,76.0,30.12,SE,142,4.0,8.0,74,0.00,,,0.00,weatherlink.com 1.10,2013-06-18 12:36:00,
2013-06-18 08:51:00,85.5,76.0,30.12,East,84,9.0,9.0,74,0.00,,,0.00,weatherlink.com 1.10,2013-06-18 12:51:00,
2013-06-18 09:06:00,84.1,75.0,30.12,ESE,122,4.0,8.0,74,0.00,,,0.00,weatherlink.com 1.10,2013-06-18 13:06:00,
2013-06-18 09:21:00,84.4,77.0,30.12,SE,134,2.0,8.0,77,0.00,,,0.00,weatherlink.com 1.10,2013-06-18 13:21:00,
2013-06-18 09:36:00,84.9,75.0,30.12,East,87,6.0,8.0,72,0.00,,,0.00,weatherlink.com 1.10,2013-06-18 13:36:00,
2013-06-18 09:51:00,84.9,77.0,30.12,East,89,7.0,9.0,76,0.00,,,0.00,weatherlink.com 1.10,2013-06-18 13:51:00,
2013-06-18 10:06:00,85.5,77.0,30.12,ESE,105,5.0,8.0,75,0.00,,,0.00,weatherlink.com 1.10,2013-06-18 14:06:00,
2013-06-18 10:21:00,85.9,76.0,30.12,SE,127,4.0,9.0,73,0.00,,,0.00,weatherlink.com 1.10,2013-06-18 14:21:00,
2013-06-18 10:36:00,85.9,76.0,30.12,ESE,108,11.0,11.0,71,0.00,,,0.00,weatherlink.com 1.10,2013-06-18 14:36:00,
2013-06-18 10:51:00,85.6,76.0,30.12,SSE,162,7.0,12.0,72,0.00,,,0.00,weatherlink.com 1.10,2013-06-18 14:51:00,
2013-06-18 11:06:00,85.7,74.0,30.12,ESE,109,7.0,10.0,69,0.00,,,0.00,weatherlink.com 1.10,2013-06-18 15:06:00,
2013-06-18 11:21:00,85.9,77.0,30.13,East,85,7.0,10.0,75,0.00,,,0.00,weatherlink.com 1.10,2013-06-18 15:21:00,
2013-06-18 11:36:00,85.6,76.0,30.12,ESE,110,8.0,11.0,74,0.00,,,0.00,weatherlink.com 1.10,2013-06-18 15:36:00,
2013-06-18 11:52:00,85.8,77.0,30.12,ESE,123,5.0,11.0,74,0.00,,,0.00,weatherlink.com 1.10,2013-06-18 15:52:00,
2013-06-18 12:06:00,85.7,77.0,30.12,ESE,107,12.0,14.0,74,0.00,,,0.00,weatherlink.com 1.10,2013-06-18 16:06:00,
2013-06-18 12:21:00,86.2,77.0,30.11,ESE,113,6.0,13.0,73,0.00,,,0.00,weatherlink.com 1.10,2013-06-18 16:21:00,
2013-06-18 12:36:00,86.2,76.0,30.11,ESE,118,8.0,12.0,71,0.00,,,0.00,weatherlink.com 1.10,2013-06-18 16:36:00,
2013-06-18 12:51:00,86.1,77.0,30.11,SE,131,5.0,13.0,73,0.00,,,0.00,weatherlink.com 1.10,2013-06-18 16:51:00,
2013-06-18 13:06:00,86.2,77.0,30.11,ESE,107,11.0,13.0,75,0.00,,,0.00,weatherlink.com 1.10,2013-06-18 17:06:00,
2013-06-18 13:21:00,86.2,77.0,30.10,ESE,117,9.0,15.0,73,0.00,,,0.00,weatherlink.com 1.10,2013-06-18 17:21:00,
2013-06-18 13:36:00,86.3,76.0,30.10,ESE,112,11.0,14.0,72,0.00,,,0.00,weatherlink.com 1.10,2013-06-18 17:36:00,
2013-06-18 13:51:00,85.9,76.0,30.10,ESE,118,9.0,13.0,72,0.00,,,0.00,weatherlink.com 1.10,2013-06-18 17:51:00,
2013-06-18 14:06:00,86.7,77.0,30.10,ESE,105,8.0,16.0,73,0.00,,,0.00,weatherlink.com 1.10,2013-06-18 18:06:00,
2013-06-18 14:21:00,86.2,77.0,30.09,East,84,10.0,17.0,73,0.00,,,0.00,weatherlink.com 1.10,2013-06-18 18:21:00,
2013-06-18 14:36:00,86.2,77.0,30.09,East,96,9.0,12.0,75,0.00,,,0.00,weatherlink.com 1.10,2013-06-18 18:36:00,
2013-06-18 14:51:00,86.1,77.0,30.08,ESE,122,6.0,15.0,74,0.00,,,0.00,weatherlink.com 1.10,2013-06-18 18:51:00,
2013-06-18 15:06:00,86.0,77.0,30.08,SE,130,7.0,17.0,74,0.00,,,0.00,weatherlink.com 1.10,2013-06-18 19:06:00,
2013-06-18 15:21:00,86.3,77.0,30.08,SSE,151,7.0,16.0,73,0.00,,,0.00,weatherlink.com 1.10,2013-06-18 19:21:00,
2013-06-18 15:37:00,85.7,76.0,30.07,SSE,151,7.0,18.0,73,0.00,,,0.00,weatherlink.com 1.10,2013-06-18 19:37:00,
2013-06-18 15:52:00,85.7,76.0,30.07,ESE,111,14.0,14.0,73,0.00,,,0.00,weatherlink.com 1.10,2013-06-18 19:52:00,
2013-06-18 16:07:00,85.6,76.0,30.07,East,81,13.0,14.0,73,0.00,,,0.00,weatherlink.com 1.10,2013-06-18 20:07:00,
2013-06-18 16:22:00,85.7,77.0,30.06,ESE,114,11.0,12.0,74,0.00,,,0.00,weatherlink.com 1.10,2013-06-18 20:22:00,
2013-06-18 16:37:00,85.5,76.0,30.06,ESE,103,13.0,14.0,74,0.00,,,0.00,weatherlink.com 1.10,2013-06-18 20:37:00,
2013-06-18 16:52:00,85.8,77.0,30.05,SE,144,7.0,14.0,75,0.00,,,0.00,weatherlink.com 1.10,2013-06-18 20:52:00,
2013-06-18 17:07:00,85.3,77.0,30.05,SE,129,7.0,16.0,76,0.00,,,0.00,weatherlink.com 1.10,2013-06-18 21:07:00,
2013-06-18 17:22:00,85.4,76.0,30.05,East,92,10.0,16.0,74,0.00,,,0.00,weatherlink.com 1.10,2013-06-18 21:22:00,
2013-06-18 17:37:00,85.4,77.0,30.05,SSE,151,6.0,15.0,75,0.00,,,0.00,weatherlink.com 1.10,2013-06-18 21:37:00,
2013-06-18 17:52:00,85.4,77.0,30.05,SSE,152,11.0,16.0,75,0.00,,,0.00,weatherlink.com 1.10,2013-06-18 21:52:00,
2013-06-18 18:07:00,84.9,76.0,30.05,East,101,11.0,15.0,74,0.00,,,0.00,weatherlink.com 1.10,2013-06-18 22:07:00,
2013-06-18 18:22:00,84.8,76.0,30.04,ESE,116,11.0,14.0,75,0.00,,,0.00,weatherlink.com 1.10,2013-06-18 22:22:00,
2013-06-18 18:37:00,84.6,76.0,30.04,ESE,107,12.0,14.0,75,0.00,,,0.00,weatherlink.com 1.10,2013-06-18 22:37:00,
2013-06-18 18:52:00,84.5,76.0,30.05,SE,144,7.0,12.0,75,0.00,,,0.00,weatherlink.com 1.10,2013-06-18 22:52:00,
2013-06-18 19:07:00,84.1,76.0,30.05,SE,130,8.0,15.0,77,0.00,,,0.00,weatherlink.com 1.10,2013-06-18 23:07:00,
2013-06-18 19:22:00,84.1,77.0,30.05,SSE,158,5.0,10.0,78,0.00,,,0.00,weatherlink.com 1.10,2013-06-18 23:22:00,
2013-06-18 19:37:00,83.7,76.0,30.05,SE,145,6.0,14.0,77,0.00,,,0.00,weatherlink.com 1.10,2013-06-18 23:37:00,
2013-06-18 19:52:00,83.3,76.0,30.06,SE,146,6.0,15.0,79,0.00,,,0.00,weatherlink.com 1.10,2013-06-18 23:52:00,
2013-06-18 20:07:00,82.9,76.0,30.06,SE,146,8.0,13.0,79,0.00,,,0.00,weatherlink.com 1.10,2013-06-19 00:07:00,
2013-06-18 20:22:00,82.7,76.0,30.06,SE,133,4.0,11.0,80,0.00,,,0.00,weatherlink.com 1.10,2013-06-19 00:22:00,
2013-06-18 20:37:00,82.6,76.0,30.07,ESE,106,7.0,12.0,80,0.00,,,0.00,weatherlink.com 1.10,2013-06-19 00:37:00,
2013-06-18 20:52:00,82.5,76.0,30.07,SE,125,5.0,10.0,81,0.00,,,0.00,weatherlink.com 1.10,2013-06-19 00:52:00,
2013-06-18 21:07:00,82.5,77.0,30.07,SE,141,6.0,10.0,82,0.00,,,0.00,weatherlink.com 1.10,2013-06-19 01:07:00,
2013-06-18 21:22:00,82.3,77.0,30.07,SE,141,5.0,10.0,83,0.00,,,0.00,weatherlink.com 1.10,2013-06-19 01:22:00,
2013-06-18 21:37:00,82.3,76.0,30.08,ESE,113,3.0,12.0,81,0.00,,,0.00,weatherlink.com 1.10,2013-06-19 01:37:00,
2013-06-18 21:52:00,82.3,76.0,30.08,SSE,148,4.0,10.0,81,0.00,,,0.00,weatherlink.com 1.10,2013-06-19 01:52:00,
2013-06-18 22:07:00,82.1,75.0,30.08,SE,137,6.0,11.0,80,0.00,,,0.00,weatherlink.com 1.10,2013-06-19 02:07:00,
2013-06-18 22:22:00,82.2,76.0,30.07,SSE,150,7.0,10.0,80,0.00,,,0.00,weatherlink.com 1.10,2013-06-19 02:22:00,
2013-06-18 22:37:00,82.3,76.0,30.08,ESE,123,7.0,10.0,81,0.00,,,0.00,weatherlink.com 1.10,2013-06-19 02:37:00,
2013-06-18 22:52:00,82.2,76.0,30.09,East,93,12.0,12.0,82,0.00,,,0.00,weatherlink.com 1.10,2013-06-19 02:52:00,
2013-06-18 23:07:00,82.2,77.0,30.10,SE,130,4.0,10.0,83,0.00,,,0.00,weatherlink.com 1.10,2013-06-19 03:07:00,
2013-06-18 23:22:00,82.3,77.0,30.10,SE,126,6.0,11.0,83,0.00,,,0.00,weatherlink.com 1.10,2013-06-19 03:22:00,
2013-06-18 23:37:00,82.2,77.0,30.10,SE,136,5.0,9.0,83,0.00,,,0.00,weatherlink.com 1.10,2013-06-19 03:37:00,
2013-06-18 23:52:00,82.2,77.0,30.09,SSE,155,4.0,9.0,83,0.00,,,0.00,weatherlink.com 1.10,2013-06-19 03:52:00,